Time;durP1;ratioP1;P1;durP2;ratioP2;P2;SDS_P1;SDS_P2;PMS_P1;PMS_P2;Temp;Humidity;BMP_temperature;BMP_pressure;BME280_temperature;BME280_humidity;BME280_pressure;Samples;Min_cycle;Max_cycle;Signal;HPM_P1;HPM_P2
2021/06/02 00:00:40;;;;;;;5.03;3.65;;;;;;;14.52;63.33;100755.11;129059;1092;22334;-74
2021/06/02 00:03:31;;;;;;;5.60;4.50;;;;;;;14.50;63.26;100757.14;129139;1090;22333;-75
2021/06/02 00:06:03;;;;;;;5.48;4.33;;;;;;;14.49;63.36;100757.28;129495;1092;22357;-75
2021/06/02 00:08:35;;;;;;;6.85;4.08;;;;;;;14.47;63.22;100757.47;129452;1092;22774;-74
2021/06/02 00:11:08;;;;;;;6.50;3.90;;;;;;;14.46;63.42;100750.52;129055;1091;24300;-75
2021/06/02 00:13:39;;;;;;;5.93;4.10;;;;;;;14.45;63.28;100759.48;129074;1091;24300;-74
2021/06/02 00:16:09;;;;;;;4.90;4.40;;;;;;;14.46;63.31;100761.15;129088;1090;24527;-74
2021/06/02 00:18:39;;;;;;;5.78;4.33;;;;;;;14.46;63.29;100757.64;129440;1091;24294;-74
2021/06/02 00:21:09;;;;;;;5.53;3.98;;;;;;;14.47;63.43;100760.13;129405;1092;22321;-75
2021/06/02 00:23:39;;;;;;;5.83;4.30;;;;;;;14.50;63.49;100765.12;129065;1092;24211;-76
2021/06/02 00:26:09;;;;;;;5.80;4.20;;;;;;;14.53;63.88;100758.61;129056;1090;24453;-74
2021/06/02 00:28:39;;;;;;;6.18;4.30;;;;;;;14.57;63.15;100763.38;129047;1091;24587;-75
2021/06/02 00:31:10;;;;;;;5.75;4.15;;;;;;;14.61;63.25;100761.17;129078;1092;22512;-74
2021/06/02 00:33:40;;;;;;;9.35;4.30;;;;;;;14.64;63.35;100763.46;128944;1092;24963;-74
2021/06/02 00:36:13;;;;;;;8.55;4.58;;;;;;;14.66;63.06;100763.26;129034;1092;22451;-75
2021/06/02 00:38:43;;;;;;;5.08;4.08;;;;;;;14.65;62.88;100766.94;129058;1092;22320;-74
2021/06/02 00:41:13;;;;;;;4.65;4.15;;;;;;;14.60;62.79;100770.16;129054;1092;22332;-74
2021/06/02 00:43:43;;;;;;;6.48;4.85;;;;;;;14.57;62.90;100766.03;128973;1094;22419;-75
2021/06/02 00:46:22;;;;;;;6.60;3.90;;;;;;;14.52;62.98;100765.73;129079;1092;23110;-75
2021/06/02 00:48:52;;;;;;;6.73;4.65;;;;;;;14.53;63.06;100770.06;129071;1092;22792;-74
2021/06/02 00:51:23;;;;;;;4.95;4.48;;;;;;;14.53;63.20;100767.41;129099;1092;22787;-74
2021/06/02 00:53:55;;;;;;;8.45;5.35;;;;;;;14.56;63.17;100768.86;129068;1092;22335;-74
2021/06/02 00:56:35;;;;;;;6.58;5.40;;;;;;;14.61;63.42;100766.48;129099;1092;22318;-75
2021/06/02 00:59:07;;;;;;;5.70;4.48;;;;;;;14.64;63.04;100765.30;129087;1092;22332;-74
2021/06/02 01:01:37;;;;;;;5.98;5.20;;;;;;;14.63;63.06;100768.94;129081;1092;22514;-74
2021/06/02 01:04:08;;;;;;;6.05;4.33;;;;;;;14.64;63.11;100773.27;129531;1092;22311;-75
2021/06/02 01:06:44;;;;;;;6.83;4.68;;;;;;;14.63;63.03;100774.27;129111;1092;22403;-75
2021/06/02 01:09:18;;;;;;;5.70;4.60;;;;;;;14.64;63.02;100779.41;129082;1090;22597;-75
2021/06/02 01:11:53;;;;;;;5.88;4.23;;;;;;;14.66;63.06;100776.55;129471;1091;22318;-76
2021/06/02 01:14:25;;;;;;;6.30;4.83;;;;;;;14.66;63.07;100776.55;129120;1092;22442;-74
2021/06/02 01:16:59;;;;;;;4.95;3.98;;;;;;;14.64;62.75;100779.41;129134;1092;22341;-75
2021/06/02 01:19:29;;;;;;;7.00;4.85;;;;;;;14.62;63.03;100776.09;129505;1090;24544;-74
2021/06/02 01:22:01;;;;;;;4.88;4.35;;;;;;;14.63;63.08;100776.92;129138;1090;24533;-75
2021/06/02 01:24:33;;;;;;;5.98;5.38;;;;;;;14.62;63.21;100788.58;129036;1092;24459;-75
2021/06/02 01:27:08;;;;;;;7.28;5.78;;;;;;;14.59;63.21;100779.98;129052;1092;24489;-75
2021/06/02 01:29:45;;;;;;;6.45;5.50;;;;;;;14.60;63.28;100780.80;129059;1092;22349;-74
2021/06/02 01:32:39;;;;;;;7.50;6.03;;;;;;;14.57;63.76;100786.48;129072;1092;23089;-74
2021/06/02 01:35:58;;;;;;;6.95;5.85;;;;;;;14.53;63.63;100788.67;129061;1094;22385;-75
2021/06/02 01:39:12;;;;;;;8.13;6.15;;;;;;;14.48;63.68;100788.36;129431;1090;24456;-74
2021/06/02 01:42:07;;;;;;;8.40;7.43;;;;;;;14.46;63.85;100790.39;128956;1095;22345;-75
2021/06/02 01:45:13;;;;;;;8.53;5.68;;;;;;;14.42;64.03;100785.60;128915;1094;24351;-75
2021/06/02 01:48:49;;;;;;;8.25;6.53;;;;;;;14.41;64.32;100791.94;128652;1095;23102;-75
2021/06/02 01:51:33;;;;;;;8.60;6.03;;;;;;;14.31;64.31;100789.53;128244;1098;22442;-75
2021/06/02 01:54:20;;;;;;;8.15;6.68;;;;;;;14.29;64.73;100786.22;128226;1100;22384;-77
2021/06/02 01:57:31;;;;;;;10.50;5.85;;;;;;;14.26;64.87;100810.50;128394;1096;24499;-75
2021/06/02 02:00:45;;;;;;;8.03;6.80;;;;;;;14.23;65.06;100803.73;128164;1099;22348;-77
2021/06/02 02:03:54;;;;;;;8.88;6.63;;;;;;;14.21;65.30;100803.08;127927;1104;22373;-74
2021/06/02 02:06:45;;;;;;;8.75;6.68;;;;;;;14.22;65.43;100802.06;127416;1107;22381;-75
2021/06/02 02:10:10;;;;;;;7.63;6.63;;;;;;;14.20;65.48;100809.41;127409;1105;24386;-75
2021/06/02 02:13:18;;;;;;;7.77;6.57;;;;;;;14.16;65.83;100812.59;126885;1108;22488;-75
2021/06/02 02:16:26;;;;;;;8.48;7.10;;;;;;;14.15;66.00;100809.11;126907;1110;22424;-75
2021/06/02 02:19:54;;;;;;;11.63;7.07;;;;;;;14.13;65.76;100809.30;127108;1102;24221;-75
2021/06/02 02:22:51;;;;;;;8.35;7.20;;;;;;;14.10;65.87;100800.87;126897;1111;22860;-74
2021/06/02 02:25:56;;;;;;;10.55;7.98;;;;;;;14.11;66.04;100808.64;126888;1108;22384;-75
2021/06/02 02:28:41;;;;;;;7.78;6.68;;;;;;;14.11;65.74;100815.80;127064;1105;25141;-75
2021/06/02 02:31:47;;;;;;;11.93;6.17;;;;;;;14.10;65.83;100812.31;127385;1105;22405;-74
2021/06/02 02:34:31;;;;;;;10.25;6.13;;;;;;;14.07;65.74;100820.64;126937;1108;22529;-75
2021/06/02 02:37:08;;;;;;;7.23;6.50;;;;;;;14.05;65.62;100817.33;127120;1105;22406;-75
2021/06/02 02:39:52;;;;;;;9.45;6.95;;;;;;;14.07;65.48;100825.13;127411;1105;24510;-75
2021/06/02 02:42:32;;;;;;;10.43;6.73;;;;;;;14.04;65.11;100822.83;127375;1107;22395;-74
2021/06/02 02:45:22;;;;;;;8.93;7.20;;;;;;;14.01;65.27;100824.01;127860;1104;22415;-75
2021/06/02 02:48:33;;;;;;;8.23;7.08;;;;;;;14.02;65.08;100824.83;127920;1104;22388;-75
2021/06/02 02:51:52;;;;;;;10.58;8.30;;;;;;;13.98;65.13;100824.36;128058;1101;22374;-75
2021/06/02 02:54:32;;;;;;;9.03;8.13;;;;;;;13.92;65.11;100825.07;128554;1096;22439;-74
2021/06/02 02:57:36;;;;;;;9.00;7.85;;;;;;;13.92;65.43;100829.56;128567;1098;22339;-75
2021/06/02 03:00:13;;;;;;;9.48;7.45;;;;;;;13.91;65.28;100831.39;128389;1098;22437;-76
2021/06/02 03:02:49;;;;;;;13.40;9.38;;;;;;;13.91;65.16;100834.05;128278;1096;23038;-75
2021/06/02 03:05:29;;;;;;;10.00;8.98;;;;;;;13.91;65.59;100834.05;128574;1097;22348;-75
2021/06/02 03:08:14;;;;;;;11.65;9.33;;;;;;;13.89;65.32;100836.05;128541;1098;22640;-77
2021/06/02 03:10:56;;;;;;;12.33;9.25;;;;;;;13.84;65.43;100843.73;128549;1098;22333;-76
2021/06/02 03:13:39;;;;;;;11.18;9.18;;;;;;;13.83;65.33;100847.41;128624;1093;22357;-75
2021/06/02 03:16:24;;;;;;;10.73;9.55;;;;;;;13.82;65.83;100849.20;128942;1095;22355;-75
2021/06/02 03:19:10;;;;;;;19.58;9.90;;;;;;;13.81;65.95;100858.19;128665;1095;22363;-74
2021/06/02 03:22:01;;;;;;;13.83;11.43;;;;;;;13.81;65.90;100858.19;128964;1095;22342;-75
2021/06/02 03:25:23;;;;;;;14.60;11.03;;;;;;;13.83;65.96;100860.69;129068;1095;24463;-74
2021/06/02 03:28:50;;;;;;;12.35;10.98;;;;;;;13.82;65.96;100864.32;129132;1089;24935;-75
2021/06/02 03:31:32;;;;;;;13.40;9.65;;;;;;;13.81;66.11;100862.67;128637;1097;22385;-74
2021/06/02 03:34:13;;;;;;;14.68;10.70;;;;;;;13.80;65.99;100869.82;128315;1099;22958;-75
2021/06/02 03:37:04;;;;;;;12.80;11.28;;;;;;;13.81;65.99;100870.64;128629;1098;23132;-75
2021/06/02 03:40:21;;;;;;;13.45;12.05;;;;;;;13.82;66.18;100886.39;128653;1098;22355;-74
2021/06/02 03:43:26;;;;;;;13.77;11.00;;;;;;;13.84;66.24;100886.23;128577;1097;22368;-75
2021/06/02 03:46:16;;;;;;;14.88;11.45;;;;;;;13.86;66.34;100884.20;128306;1093;24314;-75
2021/06/02 03:49:18;;;;;;;17.93;11.20;;;;;;;13.91;66.21;100892.48;128597;1098;22373;-74
2021/06/02 03:52:06;;;;;;;13.15;11.13;;;;;;;13.96;66.09;100894.59;128566;1095;24472;-75
2021/06/02 03:55:02;;;;;;;14.78;10.88;;;;;;;14.00;66.00;100891.44;128641;1095;24974;-76
2021/06/02 03:57:38;;;;;;;12.85;11.55;;;;;;;14.05;65.69;100898.86;128656;1098;22363;-75
2021/06/02 04:00:20;;;;;;;13.28;10.95;;;;;;;14.05;65.16;100902.34;128593;1098;22704;-74
2021/06/02 04:03:11;;;;;;;13.58;11.28;;;;;;;14.06;64.79;100895.19;128600;1095;22367;-74
2021/06/02 04:05:52;;;;;;;13.08;10.68;;;;;;;14.04;64.49;100906.01;128566;1098;22792;-75
2021/06/02 04:08:58;;;;;;;15.03;9.98;;;;;;;14.06;64.51;100909.33;128698;1095;22445;-74
2021/06/02 04:11:46;;;;;;;14.95;11.10;;;;;;;14.11;64.33;100912.26;129051;1093;24547;-75
2021/06/02 04:14:37;;;;;;;10.90;9.45;;;;;;;14.23;64.15;100902.05;128931;1095;22424;-74
2021/06/02 04:17:08;;;;;;;14.55;10.60;;;;;;;14.35;63.89;100911.23;128941;1095;23917;-74
2021/06/02 04:19:38;;;;;;;13.25;10.10;;;;;;;14.51;63.67;100909.48;128637;1095;22339;-74
2021/06/02 04:22:09;;;;;;;21.33;11.60;;;;;;;14.66;63.26;100920.14;128975;1095;22838;-74
2021/06/02 04:24:38;;;;;;;11.43;9.83;;;;;;;14.80;62.63;100914.05;128633;1097;22320;-74
2021/06/02 04:27:15;;;;;;;15.10;10.43;;;;;;;14.94;61.87;100921.20;128639;1095;22318;-74
2021/06/02 04:29:49;;;;;;;13.03;10.18;;;;;;;15.11;61.54;100919.19;128681;1095;22437;-75
2021/06/02 04:32:19;;;;;;;13.90;10.45;;;;;;;15.24;60.84;100924.70;128594;1098;22767;-75
2021/06/02 04:34:51;;;;;;;12.08;10.23;;;;;;;15.35;59.91;100928.72;128639;1095;22390;-76
2021/06/02 04:37:21;;;;;;;12.18;9.45;;;;;;;15.49;59.68;100927.05;128628;1097;22335;-75
2021/06/02 04:39:52;;;;;;;13.23;10.63;;;;;;;15.68;59.22;100923.84;128649;1097;22460;-74
2021/06/02 04:42:22;;;;;;;15.87;10.77;;;;;;;15.85;58.35;100929.77;128986;1095;22468;-74
2021/06/02 04:44:52;;;;;;;10.58;8.68;;;;;;;15.99;57.56;100928.06;128976;1095;22318;-74
2021/06/02 04:47:24;;;;;;;10.23;9.18;;;;;;;16.04;56.72;100928.34;128884;1093;22346;-75
2021/06/02 04:50:06;;;;;;;14.88;10.13;;;;;;;16.08;56.47;100929.59;128952;1095;22336;-73
2021/06/02 04:53:26;;;;;;;10.40;8.77;;;;;;;16.18;56.27;100937.28;128983;1094;22323;-74
2021/06/02 04:56:22;;;;;;;11.53;9.15;;;;;;;16.32;55.86;100939.05;129471;1091;24453;-74
2021/06/02 04:59:24;;;;;;;11.13;8.80;;;;;;;16.46;55.59;100945.33;128961;1095;22823;-75
2021/06/02 05:02:29;;;;;;;10.60;8.80;;;;;;;16.57;55.22;100939.48;128612;1095;24475;-75
2021/06/02 05:05:38;;;;;;;14.13;8.58;;;;;;;16.71;54.77;100946.57;128644;1097;23098;-76
2021/06/02 05:08:14;;;;;;;9.33;7.48;;;;;;;16.88;54.27;100947.14;128577;1096;22376;-75
2021/06/02 05:11:01;;;;;;;11.85;8.53;;;;;;;16.99;53.75;100952.95;128544;1097;22497;-75
2021/06/02 05:14:27;;;;;;;11.15;7.68;;;;;;;17.10;53.28;100949.77;128573;1097;22447;-75
2021/06/02 05:17:37;;;;;;;11.25;7.65;;;;;;;17.30;53.46;100957.88;128541;1097;22381;-74
2021/06/02 05:23:52;;;;;;;9.80;7.70;;;;;;;17.74;51.94;100960.13;128603;1094;24229;-74
2021/06/02 05:27:11;;;;;;;10.38;7.28;;;;;;;17.96;51.57;100965.36;128552;1097;22364;-74
2021/06/02 05:30:50;;;;;;;13.30;7.53;;;;;;;18.15;50.90;100967.27;128870;1095;22335;-73
2021/06/02 05:33:57;;;;;;;13.20;8.83;;;;;;;18.41;49.98;100966.49;128555;1097;25028;-75
2021/06/02 05:37:30;;;;;;;14.40;8.88;;;;;;;18.64;48.85;100968.77;128533;1098;23108;-74
2021/06/02 05:40:22;;;;;;;7.73;6.90;;;;;;;18.99;48.69;100974.77;128458;1098;22344;-75
2021/06/02 05:44:04;;;;;;;8.53;6.30;;;;;;;19.33;48.05;100980.06;128212;1101;22349;-75
2021/06/02 05:46:53;;;;;;;8.43;5.93;;;;;;;19.78;47.11;100982.81;127867;1101;22417;-74
2021/06/02 05:50:24;;;;;;;10.98;6.40;;;;;;;20.25;46.51;100976.16;127963;1104;22355;-74
2021/06/02 05:53:27;;;;;;;10.23;6.55;;;;;;;20.81;45.37;100990.64;127386;1108;23328;-74
2021/06/02 05:56:41;;;;;;;10.55;6.23;;;;;;;21.12;43.73;100981.66;127248;1108;22388;-72
2021/06/02 05:59:51;;;;;;;12.08;6.18;;;;;;;21.51;42.52;100988.52;127305;1106;24498;-75
2021/06/02 06:02:33;;;;;;;9.40;5.80;;;;;;;21.81;41.45;100990.43;126905;1111;22396;-74
2021/06/02 06:05:51;;;;;;;9.97;5.70;;;;;;;22.09;41.16;100987.99;126854;1108;22399;-74
2021/06/02 06:09:17;;;;;;;10.78;6.20;;;;;;;22.62;40.46;100994.45;126902;1111;25057;-76
2021/06/02 06:12:46;;;;;;;7.60;5.78;;;;;;;23.05;40.33;100989.84;126859;1108;24173;-75
2021/06/02 06:16:22;;;;;;;7.58;4.65;;;;;;;23.36;38.79;100992.17;126880;1107;24380;-75
2021/06/02 06:19:30;;;;;;;8.70;6.30;;;;;;;23.61;38.15;100997.27;126849;1111;22425;-74
2021/06/02 06:22:54;;;;;;;9.90;4.85;;;;;;;23.87;37.78;100997.81;126909;1110;22397;-75
2021/06/02 06:25:36;;;;;;;10.00;5.00;;;;;;;24.40;37.14;100999.33;127357;1104;24501;-74
2021/06/02 06:28:46;;;;;;;6.40;4.98;;;;;;;24.50;35.61;101004.12;127539;1104;22450;-75
2021/06/02 06:31:22;;;;;;;7.40;4.47;;;;;;;24.56;35.93;101000.44;128149;1101;22367;-74
2021/06/02 06:33:55;;;;;;;10.08;5.23;;;;;;;24.74;34.79;100999.37;128057;1101;22378;-75
2021/06/02 06:36:27;;;;;;;6.43;4.63;;;;;;;24.76;34.08;101000.77;127858;1104;22448;-76
2021/06/02 06:39:48;;;;;;;24.35;5.68;;;;;;;24.75;34.28;101009.10;127964;1098;22373;-74
2021/06/02 06:42:26;;;;;;;7.30;5.10;;;;;;;24.72;33.79;101012.30;128173;1101;22379;-76
2021/06/02 06:45:20;;;;;;;6.55;4.18;;;;;;;24.88;33.29;100997.96;128184;1101;22382;-76
2021/06/02 06:47:52;;;;;;;5.13;3.63;;;;;;;25.06;32.71;101002.30;128529;1098;22360;-75
2021/06/02 06:50:22;;;;;;;9.75;3.90;;;;;;;25.24;32.37;101006.63;128569;1095;22794;-76
2021/06/02 06:52:57;;;;;;;8.63;4.70;;;;;;;25.29;32.07;101004.83;128416;1094;22352;-75
2021/06/02 06:55:28;;;;;;;6.70;4.55;;;;;;;25.58;32.14;100996.52;128741;1095;22354;-75
2021/06/02 06:57:59;;;;;;;8.23;5.25;;;;;;;25.96;31.88;101002.95;129059;1090;22333;-75
2021/06/02 07:00:32;;;;;;;;;;;;;;;26.25;31.08;101008.92;129119;1092;22388;-75
2021/06/02 07:03:02;;;;;;;7.60;3.83;;;;;;;26.32;30.85;101011.42;129068;1092;21601;-75
2021/06/02 07:05:32;;;;;;;9.67;3.87;;;;;;;26.47;30.80;101014.28;129059;1092;22438;-76
2021/06/02 07:08:05;;;;;;;6.88;3.60;;;;;;;26.58;30.17;101007.08;129481;1092;23213;-77
2021/06/02 07:10:35;;;;;;;6.70;3.60;;;;;;;26.68;30.02;101013.39;129078;1092;22379;-76
2021/06/02 07:13:10;;;;;;;5.25;3.85;;;;;;;26.78;29.52;101011.84;129482;1092;22333;-76
2021/06/02 07:15:42;;;;;;;5.27;3.17;;;;;;;26.82;28.97;101010.24;129034;1090;22323;-75
2021/06/02 07:18:11;;;;;;;;;;;;;;;26.73;27.85;101013.45;129512;1092;22424;-76
2021/06/02 07:20:43;;;;;;;7.00;3.73;;;;;;;26.75;29.09;101005.86;129062;1092;21268;-74
2021/06/02 07:23:14;;;;;;;5.63;3.23;;;;;;;27.02;28.13;101015.80;129652;1092;23179;-75
2021/06/02 07:25:44;;;;;;;8.23;4.17;;;;;;;27.14;27.95;101021.89;128994;1095;22355;-76
2021/06/02 07:28:14;;;;;;;11.30;3.30;;;;;;;27.32;27.19;101017.09;129123;1094;22311;-75
2021/06/02 07:30:44;;;;;;;9.33;3.10;;;;;;;27.23;27.13;101022.22;129017;1092;22422;-76
2021/06/02 07:33:14;;;;;;;5.90;2.90;;;;;;;27.21;26.73;101017.05;129108;1092;22320;-75
2021/06/02 07:35:44;;;;;;;7.88;3.45;;;;;;;27.35;26.76;101022.81;128966;1091;24449;-74
2021/06/02 07:38:13;;;;;;;4.03;2.50;;;;;;;27.19;25.91;101019.22;128982;1092;24489;-75
2021/06/02 07:40:43;;;;;;;4.40;2.93;;;;;;;27.06;26.08;101037.78;128973;1094;22595;-76
2021/06/02 07:43:13;;;;;;;5.47;2.60;;;;;;;26.85;24.96;101025.98;129071;1092;22490;-76
2021/06/02 07:45:44;;;;;;;6.93;3.58;;;;;;;26.54;25.24;101031.17;129121;1092;22815;-75
2021/06/02 07:48:14;;;;;;;5.63;2.95;;;;;;;26.44;25.44;101031.05;129064;1092;22339;-76
2021/06/02 07:50:44;;;;;;;6.13;2.77;;;;;;;26.56;25.39;101020.91;129159;1090;24544;-74
2021/06/02 07:53:13;;;;;;;5.15;2.13;;;;;;;26.72;24.27;101035.38;129100;1091;22326;-74
2021/06/02 07:55:43;;;;;;;4.03;2.33;;;;;;;26.58;23.83;101032.28;129108;1092;22318;-75
2021/06/02 07:58:14;;;;;;;5.63;2.23;;;;;;;26.52;23.98;101033.30;129450;1092;22321;-75
2021/06/02 08:00:44;;;;;;;6.23;3.00;;;;;;;26.42;23.88;101031.28;129098;1092;22338;-75
2021/06/02 08:03:13;;;;;;;4.68;2.80;;;;;;;26.45;23.44;101035.38;129023;1095;22336;-75
2021/06/02 08:05:43;;;;;;;4.10;2.63;;;;;;;26.59;23.86;101035.80;129062;1092;25061;-75
2021/06/02 08:08:13;;;;;;;9.30;3.28;;;;;;;26.71;23.89;101037.27;129089;1092;22335;-74
2021/06/02 08:10:43;;;;;;;5.35;2.65;;;;;;;26.71;23.39;101041.88;129115;1093;23048;-75
2021/06/02 08:13:12;;;;;;;5.07;2.90;;;;;;;26.79;24.02;101041.42;129020;1094;22321;-75
2021/06/02 08:15:42;;;;;;;6.13;2.53;;;;;;;26.85;24.14;101034.13;129103;1090;22318;-75
2021/06/02 08:18:12;;;;;;;5.50;2.08;;;;;;;26.89;23.80;101036.07;128999;1095;22354;-75
2021/06/02 08:20:42;;;;;;;4.00;2.40;;;;;;;26.90;23.86;101039.59;129072;1092;24854;-76
2021/06/02 08:23:12;;;;;;;;;;;;;;;26.65;23.94;101042.91;129165;1092;22318;-75
2021/06/02 08:25:42;;;;;;;4.47;2.20;;;;;;;26.69;24.44;101050.28;129062;1092;22972;-76
2021/06/02 08:28:12;;;;;;;8.58;2.75;;;;;;;26.77;23.90;101054.40;128997;1091;25045;-81
2021/06/02 08:30:42;;;;;;;8.53;2.83;;;;;;;26.62;23.62;101049.65;128981;1095;22345;-76
2021/06/02 08:33:11;;;;;;;5.95;2.98;;;;;;;26.46;23.49;101051.39;128679;1095;22339;-77
2021/06/02 08:35:41;;;;;;;3.83;2.40;;;;;;;26.42;23.97;101046.73;128981;1095;22339;-76
2021/06/02 08:38:11;;;;;;;7.88;3.00;;;;;;;26.35;22.86;101046.94;128967;1095;22341;-76
2021/06/02 08:40:41;;;;;;;4.53;2.07;;;;;;;26.49;22.38;101048.20;129061;1091;24278;-77
2021/06/02 08:43:12;;;;;;;3.85;2.10;;;;;;;26.25;22.40;101053.06;128998;1094;22318;-76
2021/06/02 08:45:43;;;;;;;7.45;2.90;;;;;;;26.05;22.45;101056.37;129038;1092;22419;-76
2021/06/02 08:48:13;;;;;;;3.47;2.13;;;;;;;25.84;22.35;101057.22;128975;1092;24453;-76
2021/06/02 08:50:43;;;;;;;3.68;2.53;;;;;;;25.67;22.46;101054.54;129021;1094;22407;-75
2021/06/02 08:53:18;;;;;;;4.38;2.20;;;;;;;25.58;22.91;101059.55;129018;1092;22338;-76
2021/06/02 08:55:48;;;;;;;5.65;2.65;;;;;;;25.74;23.42;101065.98;129013;1090;22770;-76
2021/06/02 08:58:20;;;;;;;4.68;2.25;;;;;;;25.92;23.58;101053.23;129012;1095;22424;-75
2021/06/02 09:00:51;;;;;;;4.60;2.40;;;;;;;25.93;23.34;101055.70;128992;1092;22335;-75
2021/06/02 09:03:20;;;;;;;6.40;2.73;;;;;;;25.87;23.67;101064.83;128590;1095;22358;-75
2021/06/02 09:05:50;;;;;;;6.68;2.65;;;;;;;25.98;23.68;101065.77;128587;1095;22372;-76
2021/06/02 09:08:26;;;;;;;5.68;2.48;;;;;;;25.90;23.35;101071.64;128623;1098;23370;-75
2021/06/02 09:11:18;;;;;;;4.78;2.90;;;;;;;25.65;23.28;101070.20;128954;1095;24986;-75
2021/06/02 09:13:48;;;;;;;7.00;2.75;;;;;;;25.50;23.76;101067.30;128609;1095;22456;-75
2021/06/02 09:16:27;;;;;;;7.20;2.60;;;;;;;25.49;24.10;101060.23;128688;1095;24102;-75
2021/06/02 09:19:07;;;;;;;7.65;3.30;;;;;;;25.56;24.35;101074.42;128657;1094;22386;-76
2021/06/02 09:21:39;;;;;;;4.38;2.70;;;;;;;25.87;24.22;101066.73;128817;1092;22322;-75
2021/06/02 09:24:09;;;;;;;6.20;2.83;;;;;;;26.17;24.21;101063.55;129116;1093;22347;-75
2021/06/02 09:26:53;;;;;;;6.58;2.53;;;;;;;26.44;23.56;101066.27;129443;1092;22324;-75
2021/06/02 09:29:23;;;;;;;6.83;2.40;;;;;;;26.33;22.93;101078.08;129006;1092;22439;-76
2021/06/02 09:31:53;;;;;;;5.88;2.88;;;;;;;26.30;22.92;101073.98;129113;1092;22376;-75
2021/06/02 09:34:26;;;;;;;4.25;1.95;;;;;;;26.55;22.96;101067.20;129050;1091;24291;-75
2021/06/02 09:37:04;;;;;;;6.80;2.43;;;;;;;26.57;22.05;101074.01;129099;1090;22335;-77
2021/06/02 09:39:44;;;;;;;7.80;2.50;;;;;;;26.55;22.59;101064.49;129072;1090;24456;-74
2021/06/02 09:42:18;;;;;;;3.75;2.70;;;;;;;26.59;23.17;101060.19;129145;1092;22400;-74
2021/06/02 09:45:11;;;;;;;4.88;2.15;;;;;;;26.71;22.37;101064.38;129497;1091;22910;-76
2021/06/02 09:47:42;;;;;;;8.03;2.10;;;;;;;26.82;22.76;101070.69;129468;1092;24955;-76
2021/06/02 09:50:20;;;;;;;12.43;1.90;;;;;;;26.74;22.50;101068.47;129449;1090;25725;-76
2021/06/02 09:52:52;;;;;;;3.50;2.10;;;;;;;26.12;22.41;101068.89;128674;1095;22358;-75
2021/06/02 09:55:28;;;;;;;6.38;2.33;;;;;;;25.93;23.26;101063.02;128602;1095;22806;-75
2021/06/02 09:58:01;;;;;;;6.78;2.53;;;;;;;26.08;23.29;101075.90;128544;1098;22383;-75
2021/06/02 10:00:46;;;;;;;3.13;2.13;;;;;;;25.93;23.02;101063.83;128542;1098;22367;-77
2021/06/02 10:03:19;;;;;;;3.73;2.23;;;;;;;25.75;23.08;101072.22;128572;1098;22361;-75
2021/06/02 10:05:51;;;;;;;5.75;2.73;;;;;;;25.53;22.94;101074.92;128598;1098;22372;-75
2021/06/02 10:08:33;;;;;;;4.40;2.68;;;;;;;25.54;23.23;101058.42;128649;1096;22445;-76
2021/06/02 10:11:18;;;;;;;5.80;2.33;;;;;;;25.48;23.37;101058.61;128826;1095;22439;-75
2021/06/02 10:13:51;;;;;;;8.83;2.20;;;;;;;25.37;23.81;101073.06;128765;1092;22347;-75
2021/06/02 10:16:41;;;;;;;6.95;2.40;;;;;;;25.50;23.38;101061.89;129085;1092;22336;-76
2021/06/02 10:19:10;;;;;;;4.95;2.20;;;;;;;25.04;23.69;101067.41;129183;1090;22417;-75
2021/06/02 10:21:50;;;;;;;4.08;2.20;;;;;;;24.56;24.34;101071.48;129080;1093;22421;-75
2021/06/02 10:24:20;;;;;;;4.67;2.53;;;;;;;24.44;24.48;101053.70;129452;1090;22335;-75
2021/06/02 10:26:51;;;;;;;6.60;2.33;;;;;;;24.48;24.26;101068.34;128983;1091;24233;-79
2021/06/02 10:29:21;;;;;;;3.53;2.47;;;;;;;24.39;24.27;101081.38;129141;1092;22330;-74
2021/06/02 10:31:51;;;;;;;13.35;2.95;;;;;;;23.97;24.66;101075.45;129160;1092;22342;-76
2021/06/02 10:34:21;;;;;;;2.80;2.27;;;;;;;23.62;25.03;101071.72;129479;1090;22335;-76
2021/06/02 10:36:51;;;;;;;7.65;3.05;;;;;;;23.60;25.66;101067.64;129080;1092;22433;-77
2021/06/02 10:39:22;;;;;;;4.30;2.63;;;;;;;23.90;25.66;101070.19;129089;1090;25141;-78
2021/06/02 10:42:03;;;;;;;5.58;2.33;;;;;;;24.08;25.21;101085.38;129097;1092;24231;-78
2021/06/02 10:44:41;;;;;;;3.43;1.93;;;;;;;24.02;25.30;101068.25;129567;1090;24607;-78
2021/06/02 10:47:11;;;;;;;6.03;3.25;;;;;;;24.19;25.09;101081.81;129111;1092;22338;-78
2021/06/02 10:49:41;;;;;;;7.85;3.23;;;;;;;24.11;24.46;101064.13;129146;1090;25180;-78
2021/06/02 10:52:11;;;;;;;4.98;2.20;;;;;;;24.18;25.35;101077.48;129065;1091;22318;-78
2021/06/02 10:54:41;;;;;;;5.23;2.35;;;;;;;24.19;24.78;101069.16;129124;1092;22336;-77
2021/06/02 10:57:14;;;;;;;5.63;2.40;;;;;;;24.03;25.41;101059.13;129095;1092;22318;-78
2021/06/02 10:59:46;;;;;;;10.85;2.60;;;;;;;23.87;25.57;101062.56;129088;1095;22326;-78
2021/06/02 11:02:29;;;;;;;7.63;2.33;;;;;;;23.70;25.85;101073.28;129044;1095;22437;-79
2021/06/02 11:04:59;;;;;;;3.23;2.60;;;;;;;23.45;25.83;101076.20;129118;1091;22331;-79
2021/06/02 11:07:36;;;;;;;6.05;3.68;;;;;;;23.29;25.99;101066.11;129141;1090;22332;-78
2021/06/02 11:10:06;;;;;;;7.33;3.03;;;;;;;23.25;26.53;101079.24;129195;1091;24221;-76
2021/06/02 11:12:45;;;;;;;4.47;2.37;;;;;;;23.12;26.37;101080.28;129476;1091;22335;-75
2021/06/02 11:15:36;;;;;;;5.93;2.70;;;;;;;23.00;26.67;101074.90;129447;1091;22456;-76
2021/06/02 11:18:26;;;;;;;;;;;;;;;22.76;26.78;101065.94;129459;1090;24473;-74
2021/06/02 11:20:58;;;;;;;6.43;2.38;;;;;;;22.69;27.08;101072.45;128984;1095;21358;-75
2021/06/02 11:23:35;;;;;;;6.85;2.08;;;;;;;22.60;27.05;101073.86;128683;1095;22367;-75
2021/06/02 11:26:26;;;;;;;4.25;2.30;;;;;;;22.57;27.36;101068.92;128660;1093;22349;-75
2021/06/02 11:28:56;;;;;;;4.33;2.48;;;;;;;22.52;27.17;101070.41;129086;1094;22334;-75
2021/06/02 11:31:32;;;;;;;3.05;2.08;;;;;;;22.49;27.59;101070.90;128656;1095;24231;-75
2021/06/02 11:34:30;;;;;;;8.35;2.88;;;;;;;22.66;27.59;101068.38;128693;1093;22352;-75
2021/06/02 11:37:07;;;;;;;3.70;2.20;;;;;;;22.84;27.75;101062.08;128646;1095;22351;-75
2021/06/02 11:39:38;;;;;;;4.38;2.53;;;;;;;23.09;27.48;101069.16;128704;1093;24556;-75
2021/06/02 11:42:31;;;;;;;5.20;3.55;;;;;;;23.28;27.25;101088.74;128632;1095;22401;-75
2021/06/02 11:45:12;;;;;;;3.48;2.30;;;;;;;23.27;27.11;101079.84;128527;1098;22364;-75
2021/06/02 11:47:51;;;;;;;8.15;2.73;;;;;;;23.19;26.68;101080.17;128328;1099;22436;-75
2021/06/02 11:50:25;;;;;;;5.88;2.98;;;;;;;23.00;26.80;101074.90;128327;1098;22546;-76
2021/06/02 11:53:00;;;;;;;4.80;2.73;;;;;;;22.92;27.12;101077.89;128588;1097;24478;-76
2021/06/02 11:55:33;;;;;;;3.10;2.30;;;;;;;22.75;26.84;101074.23;128621;1098;22351;-75
2021/06/02 11:58:06;;;;;;;6.28;2.63;;;;;;;22.64;27.13;101075.84;128360;1095;22407;-75
2021/06/02 12:00:37;;;;;;;8.40;2.80;;;;;;;22.64;27.23;101075.03;128642;1093;24489;-78
2021/06/02 12:03:12;;;;;;;4.33;2.65;;;;;;;22.57;27.16;101071.62;128742;1096;22350;-77
2021/06/02 12:05:43;;;;;;;4.93;2.70;;;;;;;22.62;27.23;101056.39;128917;1095;22402;-80
2021/06/02 12:08:16;;;;;;;6.55;2.48;;;;;;;22.80;27.14;101055.52;128917;1093;24217;-77
2021/06/02 12:10:54;;;;;;;3.55;2.03;;;;;;;22.89;26.88;101056.83;128638;1097;22456;-76
2021/06/02 12:13:31;;;;;;;3.50;1.70;;;;;;;23.03;26.62;101064.72;128726;1094;22331;-75
2021/06/02 12:16:12;;;;;;;2.88;1.80;;;;;;;23.13;26.58;101063.08;128671;1093;23110;-76
2021/06/02 12:18:46;;;;;;;4.25;2.18;;;;;;;23.11;26.43;101059.79;128699;1095;22351;-76
2021/06/02 12:21:27;;;;;;;3.98;2.30;;;;;;;22.91;26.66;101064.66;128702;1094;22344;-75
2021/06/02 12:24:06;;;;;;;4.45;2.33;;;;;;;22.78;27.08;101054.91;129024;1092;22974;-76
2021/06/02 12:26:42;;;;;;;6.00;2.40;;;;;;;22.71;27.06;101060.41;129145;1092;22423;-77